createdAt,value
2019-05-20T00:01:13.281Z,61.10
2019-05-20T00:03:40.225Z,58.73
2019-05-20T00:06:07.516Z,49.60
2019-05-20T00:08:34.559Z,52.65
2019-05-20T00:11:02.767Z,51.53
2019-05-20T00:13:29.749Z,49.63
2019-05-20T00:15:56.551Z,48.73
2019-05-20T00:18:23.593Z,41.85
2019-05-20T00:20:50.495Z,46.85
2019-05-20T00:23:17.394Z,44.83
2019-05-20T00:25:44.052Z,46.95
2019-05-20T00:28:10.808Z,40.38
2019-05-20T00:30:37.964Z,44.25
2019-05-20T00:33:04.848Z,41.28
2019-05-20T00:35:32.057Z,37.90
2019-05-20T00:37:59.004Z,39.13
2019-05-20T00:40:25.564Z,41.88
2019-05-20T00:42:52.442Z,41.18
2019-05-20T00:45:20.616Z,43.50
2019-05-20T00:47:49.612Z,41.73
2019-05-20T00:50:16.568Z,39.73
2019-05-20T00:52:43.324Z,43.90
2019-05-20T00:55:31.141Z,38.78
2019-05-20T00:57:57.869Z,44.15
2019-05-20T01:00:25.544Z,45.63
2019-05-20T01:02:57.029Z,45.75
2019-05-20T01:05:21.300Z,40.50
2019-05-20T01:07:48.454Z,44.13
2019-05-20T01:10:15.313Z,44.18
2019-05-20T01:12:42.181Z,45.90
2019-05-20T01:15:09.161Z,43.42
2019-05-20T01:17:35.945Z,45.43
2019-05-20T01:20:04.080Z,38.58
2019-05-20T01:22:31.204Z,40.03
2019-05-20T01:24:59.133Z,40.80
2019-05-20T01:27:26.058Z,42.35
2019-05-20T01:29:56.326Z,41.50
2019-05-20T01:32:23.110Z,38.67
2019-05-20T01:34:50.371Z,43.42
2019-05-20T01:37:17.155Z,46.45
2019-05-20T01:39:44.200Z,45.67
2019-05-20T01:42:11.296Z,40.17
2019-05-20T01:44:38.655Z,42.58
2019-05-20T01:47:06.043Z,39.27
2019-05-20T01:49:32.897Z,40.12
2019-05-20T01:51:59.451Z,41.88
2019-05-20T01:54:26.424Z,45.33
2019-05-20T01:56:53.245Z,40.98
2019-05-20T01:59:20.206Z,40.90
2019-05-20T02:01:48.531Z,43.85
2019-05-20T02:04:15.657Z,43.87
2019-05-20T02:06:42.838Z,43.65
2019-05-20T02:09:12.914Z,45.52
2019-05-20T02:11:40.912Z,47.58
2019-05-20T02:14:09.915Z,45.78
2019-05-20T02:16:36.988Z,45.83
2019-05-20T02:19:04.207Z,50.58
2019-05-20T02:21:31.595Z,46.92
2019-05-20T02:23:59.250Z,51.60
2019-05-20T02:26:26.215Z,44.83
2019-05-20T02:28:53.361Z,54.18
2019-05-20T02:31:20.673Z,53.02
2019-05-20T02:33:52.218Z,50.38
2019-05-20T02:36:16.280Z,56.25
2019-05-20T02:38:43.373Z,60.67
2019-05-20T02:41:10.492Z,57.05
2019-05-20T02:43:37.833Z,62.27
2019-05-20T02:46:05.181Z,53.45
2019-05-20T02:48:32.258Z,56.55
2019-05-20T02:50:59.315Z,54.80
2019-05-20T02:53:26.436Z,52.40
2019-05-20T02:55:53.301Z,55.33
2019-05-20T02:58:20.116Z,55.30
2019-05-20T03:00:46.739Z,52.65
2019-05-20T03:03:13.913Z,56.83
2019-05-20T03:05:40.616Z,48.10
2019-05-20T03:08:07.530Z,51.37
2019-05-20T03:10:34.439Z,53.23
2019-05-20T03:13:01.375Z,50.12
2019-05-20T03:15:28.413Z,54.18
2019-05-20T03:17:55.290Z,56.35
2019-05-20T03:20:22.305Z,56.00
2019-05-20T03:22:49.143Z,55.28
2019-05-20T03:25:16.098Z,59.48
2019-05-20T03:27:42.973Z,59.23
2019-05-20T03:30:10.612Z,63.38
2019-05-20T03:32:37.697Z,58.23
2019-05-20T03:35:07.381Z,59.38
2019-05-20T03:37:34.205Z,61.45
2019-05-20T03:40:01.289Z,61.70
2019-05-20T03:42:28.249Z,65.87
2019-05-20T03:44:55.340Z,59.95
2019-05-20T03:47:22.515Z,53.15
2019-05-20T03:49:49.633Z,60.85
2019-05-20T03:52:16.707Z,56.90
2019-05-20T03:54:43.533Z,57.98
2019-05-20T03:57:10.089Z,52.08
2019-05-20T03:59:37.065Z,62.43
2019-05-20T04:02:05.907Z,60.67
2019-05-20T04:04:32.730Z,61.88
2019-05-20T04:06:59.630Z,59.08
2019-05-20T04:09:26.457Z,83.25
2019-05-20T04:11:53.311Z,68.37
2019-05-20T04:14:20.146Z,62.45
2019-05-20T04:16:50.031Z,58.33
2019-05-20T04:19:16.911Z,56.77
2019-05-20T04:21:43.860Z,57.25
2019-05-20T04:24:11.046Z,59.63
2019-05-20T04:26:37.814Z,57.50
2019-05-20T04:29:04.394Z,57.50
2019-05-20T04:31:31.284Z,55.55
2019-05-20T04:33:59.784Z,54.85
2019-05-20T04:36:26.735Z,56.75
2019-05-20T04:38:55.652Z,53.68
2019-05-20T04:41:22.594Z,52.08
2019-05-20T04:43:49.315Z,53.15
2019-05-20T04:46:16.523Z,51.35
2019-05-20T04:48:43.413Z,53.92
2019-05-20T04:51:10.146Z,50.05
2019-05-20T04:53:36.910Z,48.05
2019-05-20T04:56:03.752Z,46.37
2019-05-20T04:58:30.495Z,53.52
2019-05-20T05:00:57.362Z,53.45
2019-05-20T05:03:24.069Z,55.38
2019-05-20T05:05:51.196Z,54.20
2019-05-20T05:08:22.950Z,45.15
2019-05-20T05:10:50.241Z,41.28
2019-05-20T05:13:17.233Z,36.65
2019-05-20T05:15:45.227Z,41.08
2019-05-20T05:18:12.198Z,41.10
2019-05-20T05:20:39.770Z,41.15
2019-05-20T05:23:06.491Z,41.00
2019-05-20T05:25:34.036Z,40.35
2019-05-20T05:28:00.815Z,44.40
2019-05-20T05:30:27.651Z,44.03
2019-05-20T05:33:13.363Z,49.42
2019-05-20T05:35:52.211Z,47.08
2019-05-20T05:38:12.110Z,47.17
2019-05-20T05:40:44.736Z,44.60
2019-05-20T05:43:16.124Z,47.62
2019-05-20T05:45:42.973Z,54.03
2019-05-20T05:48:10.349Z,52.80
2019-05-20T05:50:39.113Z,44.88
2019-05-20T05:53:06.385Z,46.20
2019-05-20T05:55:33.438Z,45.52
2019-05-20T05:58:00.161Z,44.63
2019-05-20T06:00:27.343Z,48.05
2019-05-20T06:02:54.405Z,45.38
2019-05-20T06:05:21.535Z,49.90
2019-05-20T06:07:51.317Z,51.68
2019-05-20T06:10:18.674Z,51.13
2019-05-20T06:12:46.335Z,46.92
2019-05-20T06:15:15.025Z,48.17
2019-05-20T06:17:41.748Z,43.63
2019-05-20T06:20:09.285Z,45.10
2019-05-20T06:22:36.295Z,46.33
2019-05-20T06:25:06.739Z,43.23
2019-05-20T06:27:33.617Z,48.80
2019-05-20T06:30:00.970Z,58.95
2019-05-20T06:32:37.480Z,60.12
2019-05-20T06:35:05.953Z,47.60
2019-05-20T06:37:34.999Z,41.77
2019-05-20T06:40:02.097Z,46.25
2019-05-20T06:42:31.059Z,47.40
2019-05-20T06:44:58.081Z,40.28
2019-05-20T06:47:25.484Z,38.25
2019-05-20T06:49:52.488Z,36.95
2019-05-20T06:52:34.840Z,36.15
2019-05-20T06:54:47.811Z,37.65
2019-05-20T06:57:16.436Z,39.65
2019-05-20T06:59:43.489Z,37.38
2019-05-20T07:02:10.377Z,36.00
2019-05-20T07:04:37.504Z,36.00
2019-05-20T07:07:19.903Z,41.30
2019-05-20T07:09:33.268Z,35.95
2019-05-20T07:12:00.422Z,35.80
2019-05-20T07:14:31.104Z,33.60
2019-05-20T07:16:57.843Z,31.80
2019-05-20T07:19:24.990Z,29.72
2019-05-20T07:21:51.617Z,32.90
2019-05-20T07:24:19.684Z,34.90
2019-05-20T07:26:46.729Z,27.35
2019-05-20T07:29:14.069Z,37.83
2019-05-20T07:31:41.462Z,29.32
2019-05-20T07:34:10.361Z,42.00
2019-05-20T07:36:37.562Z,34.55
2019-05-20T07:39:06.029Z,25.90
2019-05-20T07:41:33.105Z,22.93
2019-05-20T07:44:00.247Z,21.77
2019-05-20T07:46:27.575Z,21.37
2019-05-20T07:48:54.618Z,18.85
2019-05-20T07:51:22.766Z,16.97
2019-05-20T07:53:49.985Z,19.92
2019-05-20T07:56:20.422Z,15.23
2019-05-20T07:58:50.907Z,16.82
2019-05-20T08:01:17.868Z,14.58
2019-05-20T08:03:44.823Z,15.43
2019-05-20T08:06:12.004Z,14.38
2019-05-20T08:08:38.836Z,16.25
2019-05-20T08:11:05.897Z,14.73
2019-05-20T08:13:32.797Z,13.65
2019-05-20T08:16:00.066Z,14.98
2019-05-20T08:18:27.116Z,13.78
2019-05-20T08:20:53.905Z,14.43
2019-05-20T08:23:22.706Z,13.08
2019-05-20T08:25:50.034Z,14.55
2019-05-20T08:28:17.568Z,17.37
2019-05-20T08:30:44.680Z,12.20
2019-05-20T08:33:11.275Z,12.98
2019-05-20T08:35:40.189Z,13.50
2019-05-20T08:38:07.298Z,13.58
2019-05-20T08:40:34.399Z,14.50
2019-05-20T08:43:02.467Z,12.68
2019-05-20T08:45:29.565Z,12.37
2019-05-20T08:47:56.654Z,14.23
2019-05-20T08:50:23.598Z,12.88
2019-05-20T08:52:51.916Z,13.10
2019-05-20T08:55:19.085Z,16.65
2019-05-20T08:57:46.183Z,13.93
2019-05-20T09:00:23.294Z,13.10
2019-05-20T09:02:48.200Z,13.75
2019-05-20T09:05:16.502Z,15.75
2019-05-20T09:08:01.452Z,17.25
2019-05-20T09:12:42.976Z,15.18
2019-05-20T09:15:11.021Z,13.28
2019-05-20T09:17:39.015Z,14.23
2019-05-20T09:20:09.758Z,15.58
2019-05-20T09:22:37.048Z,14.70
2019-05-20T09:25:06.499Z,15.03
2019-05-20T09:27:34.808Z,35.40
2019-05-20T09:30:02.867Z,25.30
2019-05-20T09:32:31.840Z,17.52
2019-05-20T09:34:59.163Z,14.78
2019-05-20T09:37:26.250Z,14.33
2019-05-20T09:39:53.629Z,15.00
2019-05-20T09:42:20.418Z,13.15
2019-05-20T09:44:47.419Z,15.43
2019-05-20T09:47:14.330Z,15.30
2019-05-20T09:49:41.831Z,15.48
2019-05-20T09:52:08.757Z,15.55
2019-05-20T09:54:35.363Z,15.95
2019-05-20T09:57:04.813Z,14.13
2019-05-20T09:59:42.658Z,13.80
2019-05-20T10:02:00.463Z,13.18
2019-05-20T10:04:27.600Z,13.40
2019-05-20T10:06:54.431Z,12.07
2019-05-20T10:09:21.154Z,17.27
2019-05-20T10:11:47.932Z,15.38
2019-05-20T10:14:14.736Z,16.02
2019-05-20T10:16:41.603Z,16.80
2019-05-20T10:19:08.555Z,20.92
2019-05-20T10:21:35.571Z,14.10
2019-05-20T10:24:02.922Z,12.98
2019-05-20T10:26:29.706Z,14.33
2019-05-20T10:28:56.795Z,17.70
2019-05-20T10:31:24.751Z,17.45
2019-05-20T10:33:51.597Z,16.10
2019-05-20T10:36:18.915Z,18.00
2019-05-20T10:38:58.032Z,16.15
2019-05-20T10:41:15.124Z,17.27
2019-05-20T10:43:57.360Z,16.62
2019-05-20T10:46:24.756Z,14.33
2019-05-20T10:48:51.802Z,15.20
2019-05-20T10:51:19.444Z,16.23
2019-05-20T10:53:46.430Z,16.37
2019-05-20T10:56:15.618Z,17.25
2019-05-20T10:58:42.726Z,18.52
2019-05-20T11:01:09.820Z,18.35
2019-05-20T11:03:36.696Z,18.15
2019-05-20T11:06:03.608Z,17.92
2019-05-20T11:08:30.559Z,18.77
2019-05-20T11:10:59.497Z,17.98
2019-05-20T11:13:26.499Z,20.72
2019-05-20T11:15:53.546Z,20.35
2019-05-20T11:18:20.944Z,25.40
2019-05-20T11:20:48.009Z,23.02
2019-05-20T11:23:15.104Z,21.35
2019-05-20T11:25:41.771Z,21.87
2019-05-20T11:28:11.995Z,20.02
2019-05-20T11:30:38.627Z,20.70
2019-05-20T11:33:05.966Z,21.87
2019-05-20T11:35:33.091Z,20.43
2019-05-20T11:38:00.253Z,20.57
2019-05-20T11:40:27.114Z,19.27
2019-05-20T11:42:54.122Z,20.55
2019-05-20T11:45:21.077Z,23.27
2019-05-20T11:47:47.901Z,20.00
2019-05-20T11:50:17.808Z,19.80
2019-05-20T11:52:44.818Z,22.60
2019-05-20T11:55:12.875Z,20.17
2019-05-20T11:57:40.043Z,19.48
2019-05-20T12:00:09.009Z,18.37
2019-05-20T12:02:36.210Z,18.82
2019-05-20T12:05:04.958Z,16.93
2019-05-20T12:07:32.079Z,16.20
2019-05-20T12:09:59.608Z,19.10
2019-05-20T12:12:27.343Z,18.00
2019-05-20T12:14:54.822Z,17.90
2019-05-20T12:17:23.509Z,19.37
2019-05-20T12:19:50.456Z,23.00
2019-05-20T12:22:17.873Z,20.37
2019-05-20T12:24:45.296Z,20.37
2019-05-20T12:27:13.523Z,19.27
2019-05-20T12:29:41.287Z,18.92
2019-05-20T12:32:08.793Z,18.32
2019-05-20T12:34:36.064Z,17.40
2019-05-20T12:37:03.164Z,18.35
2019-05-20T12:39:30.878Z,20.77
2019-05-20T12:41:58.374Z,14.50
2019-05-20T12:44:25.562Z,14.58
2019-05-20T12:46:53.159Z,14.13
2019-05-20T12:49:20.497Z,13.68
2019-05-20T12:51:48.634Z,16.48
2019-05-20T12:54:15.425Z,14.28
2019-05-20T12:56:42.295Z,13.10
2019-05-20T12:59:08.900Z,14.18
2019-05-20T13:01:35.649Z,15.03
2019-05-20T13:04:02.828Z,14.35
2019-05-20T13:06:30.867Z,14.63
2019-05-20T13:08:57.511Z,14.90
2019-05-20T13:11:24.588Z,12.78
2019-05-20T13:13:51.571Z,13.35
2019-05-20T13:16:18.517Z,14.05
2019-05-20T13:18:55.294Z,17.98
2019-05-20T13:21:18.396Z,16.00
2019-05-20T13:23:48.842Z,17.85
2019-05-20T13:26:13.663Z,19.92
2019-05-20T13:28:40.445Z,21.62
2019-05-20T13:31:07.412Z,21.12
2019-05-20T13:33:34.155Z,19.75
2019-05-20T13:36:02.935Z,17.17
2019-05-20T13:38:29.774Z,20.40
2019-05-20T13:40:59.696Z,19.70
2019-05-20T13:43:26.801Z,20.50
2019-05-20T13:45:53.448Z,19.32
2019-05-20T13:48:20.288Z,20.97
2019-05-20T13:50:47.179Z,20.85
2019-05-20T13:53:14.084Z,22.00
2019-05-20T13:55:40.751Z,22.62
2019-05-20T13:58:07.622Z,25.17
2019-05-20T14:00:34.711Z,23.65
2019-05-20T14:03:01.504Z,28.02
2019-05-20T14:05:28.326Z,23.98
2019-05-20T14:07:55.174Z,23.35
2019-05-20T14:10:22.313Z,21.48
2019-05-20T14:12:49.193Z,19.80
2019-05-20T14:15:16.351Z,23.05
2019-05-20T14:17:43.127Z,20.15
2019-05-20T14:20:10.602Z,21.52
2019-05-20T14:22:37.494Z,20.90
2019-05-20T14:25:06.139Z,23.18
2019-05-20T14:27:33.080Z,23.12
2019-05-20T14:29:59.896Z,23.42
2019-05-20T14:32:26.729Z,22.37
2019-05-20T14:34:54.577Z,23.40
2019-05-20T14:37:21.478Z,20.43
2019-05-20T14:39:49.465Z,19.65
2019-05-20T14:42:18.279Z,21.60
2019-05-20T14:44:45.398Z,21.35
2019-05-20T14:47:13.767Z,20.00
2019-05-20T14:49:40.586Z,20.08
2019-05-20T14:52:07.410Z,22.32
2019-05-20T14:54:34.489Z,21.35
2019-05-20T14:57:01.301Z,23.62
2019-05-20T14:59:29.997Z,26.30
2019-05-20T15:01:56.577Z,23.65
2019-05-20T15:04:23.326Z,27.05
2019-05-20T15:06:50.143Z,23.42
2019-05-20T15:09:17.222Z,25.97
2019-05-20T15:11:44.308Z,24.12
2019-05-20T15:14:10.760Z,31.90
2019-05-20T15:16:37.222Z,27.50
2019-05-20T15:19:04.008Z,29.60
2019-05-20T15:21:30.644Z,30.97
2019-05-20T15:23:59.228Z,28.32
2019-05-20T15:26:27.501Z,30.50
2019-05-20T15:28:54.709Z,34.67
2019-05-20T15:31:22.947Z,33.90
2019-05-20T15:33:49.826Z,29.67
2019-05-20T15:36:16.554Z,31.42
2019-05-20T15:38:43.591Z,24.70
2019-05-20T15:41:10.657Z,22.82
2019-05-20T15:43:37.383Z,30.97
2019-05-20T15:46:07.485Z,23.00
2019-05-20T15:48:34.566Z,25.50
2019-05-20T15:51:01.500Z,31.00
2019-05-20T15:53:28.027Z,30.05
2019-05-20T15:55:55.169Z,35.75
2019-05-20T15:58:23.822Z,30.30
2019-05-20T16:00:50.660Z,32.05
2019-05-20T16:03:18.841Z,33.90
2019-05-20T16:05:46.042Z,36.03
2019-05-20T16:08:13.085Z,34.10
2019-05-20T16:10:43.643Z,31.02
2019-05-20T16:13:10.597Z,31.42
2019-05-20T16:15:38.208Z,29.77
2019-05-20T16:18:05.235Z,35.43
2019-05-20T16:20:32.230Z,35.78
2019-05-20T16:22:58.868Z,37.45
2019-05-20T16:25:25.818Z,41.58
2019-05-20T16:27:52.531Z,38.02
2019-05-20T16:30:20.381Z,42.25
2019-05-20T16:32:47.411Z,40.25
2019-05-20T16:35:14.452Z,39.15
2019-05-20T16:37:41.238Z,40.90
2019-05-20T16:40:08.797Z,45.78
2019-05-20T16:42:35.878Z,49.53
2019-05-20T16:45:05.920Z,56.23
2019-05-20T16:47:34.653Z,53.08
2019-05-20T16:50:02.306Z,45.58
2019-05-20T16:52:29.335Z,48.17
2019-05-20T16:54:56.254Z,50.85
2019-05-20T16:57:23.184Z,49.48
2019-05-20T16:59:52.260Z,46.98
2019-05-20T17:02:22.088Z,48.13
2019-05-20T17:04:48.911Z,50.75
2019-05-20T17:07:15.827Z,51.18
2019-05-20T17:09:42.569Z,47.85
2019-05-20T17:12:09.751Z,53.40
2019-05-20T17:14:38.619Z,49.65
2019-05-20T17:17:05.512Z,50.55
2019-05-20T17:19:32.783Z,46.37
2019-05-20T17:22:00.733Z,44.25
2019-05-20T17:24:27.574Z,40.55
2019-05-20T17:27:03.593Z,42.45
2019-05-20T17:29:30.574Z,42.73
2019-05-20T17:31:57.215Z,46.08
2019-05-20T17:34:23.903Z,41.90
2019-05-20T17:36:50.689Z,42.17
2019-05-20T17:39:19.512Z,39.50
2019-05-20T17:41:46.440Z,39.63
2019-05-20T17:44:13.251Z,33.15
2019-05-20T17:46:40.268Z,36.95
2019-05-20T17:49:07.398Z,38.08
2019-05-20T17:51:34.479Z,38.58
2019-05-20T17:54:01.334Z,42.90
2019-05-20T17:56:28.301Z,37.28
2019-05-20T17:58:55.101Z,40.83
2019-05-20T18:01:24.847Z,40.63
2019-05-20T18:03:57.153Z,42.38
2019-05-20T18:06:23.468Z,39.03
2019-05-20T18:08:52.201Z,39.95
2019-05-20T18:11:19.454Z,51.30
2019-05-20T18:13:46.390Z,49.83
2019-05-20T18:16:13.437Z,42.95
2019-05-20T18:18:40.352Z,51.05
2019-05-20T18:21:09.081Z,49.13
2019-05-20T18:23:37.706Z,38.02
2019-05-20T18:26:04.344Z,40.40
2019-05-20T18:28:31.039Z,40.88
2019-05-20T18:30:58.024Z,41.65
2019-05-20T18:33:25.036Z,41.95
2019-05-20T18:35:52.137Z,38.98
2019-05-20T18:38:22.187Z,41.58
2019-05-20T18:40:53.481Z,41.25
2019-05-20T18:43:23.803Z,41.45
2019-05-20T18:45:51.435Z,42.93
2019-05-20T18:48:25.968Z,48.98
2019-05-20T18:51:01.300Z,42.35
2019-05-20T18:53:24.443Z,51.70
2019-05-20T18:55:55.113Z,49.30
2019-05-20T18:58:22.240Z,49.93
2019-05-20T19:00:50.376Z,51.37
2019-05-20T19:03:21.707Z,48.10
2019-05-20T19:05:48.776Z,48.30
2019-05-20T19:08:16.825Z,48.52
2019-05-20T19:10:43.933Z,51.23
2019-05-20T19:13:11.204Z,47.38
2019-05-20T19:15:38.724Z,51.68
2019-05-20T19:18:06.204Z,53.83
2019-05-20T19:20:35.336Z,59.33
2019-05-20T19:23:02.443Z,54.88
2019-05-20T19:25:37.485Z,56.83
2019-05-20T19:27:58.704Z,56.40
2019-05-20T19:30:26.179Z,55.08
2019-05-20T19:32:53.190Z,54.58
2019-05-20T19:35:20.549Z,58.48
2019-05-20T19:37:47.285Z,62.25
2019-05-20T19:40:14.882Z,57.53
2019-05-20T19:42:42.122Z,56.98
2019-05-20T19:45:25.437Z,57.67
2019-05-20T19:47:53.011Z,65.65
2019-05-20T19:50:20.559Z,62.27
2019-05-20T19:52:52.853Z,66.97
2019-05-20T19:55:20.218Z,66.17
2019-05-20T19:57:47.825Z,60.25
2019-05-20T20:00:15.323Z,55.88
2019-05-20T20:02:42.754Z,50.33
2019-05-20T20:05:09.810Z,48.73
2019-05-20T20:07:36.654Z,40.75
2019-05-20T20:10:04.706Z,42.95
2019-05-20T20:12:32.062Z,45.10
2019-05-20T20:14:59.234Z,43.02
2019-05-20T20:17:28.642Z,47.73
2019-05-20T20:19:58.165Z,45.95
2019-05-20T20:22:24.354Z,48.35
2019-05-20T20:24:51.178Z,44.88
2019-05-20T20:27:18.358Z,41.60
2019-05-20T20:29:45.394Z,36.68
2019-05-20T20:32:12.415Z,43.42
2019-05-20T20:34:40.005Z,41.83
2019-05-20T20:37:07.740Z,47.23
2019-05-20T20:39:34.587Z,46.00
2019-05-20T20:42:01.712Z,54.50
2019-05-20T20:44:30.624Z,56.13
2019-05-20T20:46:57.161Z,56.92
2019-05-20T20:49:24.152Z,51.80
2019-05-20T20:51:51.494Z,62.33
2019-05-20T20:54:18.532Z,64.70
2019-05-20T20:56:45.785Z,65.52
2019-05-20T20:59:12.633Z,60.98
2019-05-20T21:01:39.643Z,61.68
2019-05-20T21:04:06.531Z,55.17
2019-05-20T21:06:33.655Z,46.85
2019-05-20T21:09:00.916Z,48.50
2019-05-20T21:11:28.043Z,50.35
2019-05-20T21:13:55.107Z,49.00
2019-05-20T21:16:21.639Z,50.15
2019-05-20T21:18:48.614Z,50.98
2019-05-20T21:21:15.979Z,52.03
2019-05-20T21:23:42.996Z,48.25
2019-05-20T21:26:10.454Z,53.08
2019-05-20T21:28:37.207Z,49.48
2019-05-20T21:31:04.191Z,49.40
2019-05-20T21:33:31.281Z,45.28
2019-05-20T21:35:58.358Z,47.95
2019-05-20T21:38:25.164Z,52.25
2019-05-20T21:40:52.119Z,42.67
2019-05-20T21:43:19.138Z,43.42
2019-05-20T21:45:46.154Z,46.13
2019-05-20T21:48:13.232Z,45.85
2019-05-20T21:50:41.170Z,45.70
2019-05-20T21:53:08.073Z,53.45
2019-05-20T21:55:35.122Z,49.25
2019-05-20T21:58:02.279Z,49.48
2019-05-20T22:00:43.524Z,48.17
2019-05-20T22:03:23.614Z,44.48
2019-05-20T22:05:40.312Z,52.30
2019-05-20T22:08:07.236Z,47.00
2019-05-20T22:10:33.954Z,43.80
2019-05-20T22:13:00.871Z,47.50
2019-05-20T22:15:27.812Z,46.50
2019-05-20T22:17:54.616Z,48.35
2019-05-20T22:20:21.677Z,46.63
2019-05-20T22:22:50.437Z,44.90
2019-05-20T22:25:17.100Z,38.42
2019-05-20T22:27:43.935Z,43.25
2019-05-20T22:30:13.039Z,39.63
2019-05-20T22:32:39.747Z,43.05
2019-05-20T22:35:06.931Z,42.33
2019-05-20T22:37:33.873Z,39.85
2019-05-20T22:40:00.885Z,39.15
2019-05-20T22:42:27.732Z,39.75
2019-05-20T22:44:54.884Z,46.83
2019-05-20T22:47:21.657Z,43.15
2019-05-20T22:49:48.848Z,43.48
2019-05-20T22:52:16.078Z,41.65
2019-05-20T22:54:42.921Z,42.50
2019-05-20T22:57:12.202Z,43.55
2019-05-20T22:59:38.786Z,48.73
2019-05-20T23:02:05.684Z,47.88
2019-05-20T23:04:33.684Z,50.60
2019-05-20T23:07:00.705Z,54.23
2019-05-20T23:09:27.725Z,52.78
2019-05-20T23:11:54.636Z,47.80
2019-05-20T23:14:21.431Z,46.33
2019-05-20T23:16:48.298Z,50.78
2019-05-20T23:19:15.454Z,45.60
2019-05-20T23:21:43.456Z,46.73
2019-05-20T23:24:19.420Z,43.33
2019-05-20T23:26:48.611Z,44.98
2019-05-20T23:29:15.370Z,45.05
2019-05-20T23:31:42.466Z,48.38
2019-05-20T23:34:12.589Z,43.95
2019-05-20T23:36:38.220Z,44.60
2019-05-20T23:39:06.533Z,43.05
2019-05-20T23:41:33.746Z,41.25
2019-05-20T23:44:00.828Z,44.58
2019-05-20T23:46:28.156Z,41.08
2019-05-20T23:48:55.399Z,38.63
2019-05-20T23:51:22.373Z,42.15
2019-05-20T23:53:49.131Z,40.78
2019-05-20T23:56:17.942Z,40.80
2019-05-20T23:58:45.025Z,44.27
